Terminal Aerodrome Forecast
Issued by NWS Wilmington, OH

Current Version | Previous Version | Graphics & Text | Print | Product List | Glossary On
Versions: 1 2 3 4 5 6 7 8 9 10 11 12 13 14 15 16 17 18 19 20 21 22 23 24 25 26
000
FTUS41 KILN 210500
TAFDAY
TAF
KDAY 210530Z 2106/2206 21010KT P6SM VCTS BKN050CB
     FM211000 24010KT P6SM VCSH OVC015
     FM211400 26010KT P6SM BKN025
     FM211500 28016G26KT P6SM SCT040
     FM212100 30015G25KT P6SM BKN050
     FM220200 31014KT P6SM OVC040=

USA.gov is the U.S. government's official web portal to all federal, state and local government web resources and services.